Time;durP1;ratioP1;P1;durP2;ratioP2;P2;SDS_P1;SDS_P2;PMS_P1;PMS_P2;Temp;Humidity;BMP_temperature;BMP_pressure;BME280_temperature;BME280_humidity;BME280_pressure;Samples;Min_cycle;Max_cycle;Signal;HPM_P1;HPM_P2
2020/12/06 00:00:59;;;;;;;13.98;6.90;;;1.00;64.00;;;;;;5053172;28;20453;-70
2020/12/06 00:03:25;;;;;;;14.88;6.68;;;1.00;63.90;;;;;;5035366;28;20078;-70
2020/12/06 00:05:50;;;;;;;11.18;6.20;;;1.10;63.90;;;;;;5053326;28;20461;-69
2020/12/06 00:08:16;;;;;;;15.05;5.88;;;1.10;63.90;;;;;;5052890;28;20041;-70
2020/12/06 00:10:42;;;;;;;11.80;5.72;;;1.00;63.70;;;;;;5053060;28;20514;-69
2020/12/06 00:13:07;;;;;;;12.45;5.68;;;1.00;63.80;;;;;;5053083;28;20025;-70
2020/12/06 00:15:33;;;;;;;12.63;6.05;;;1.00;63.80;;;;;;5052600;28;20079;-70
2020/12/06 00:17:59;;;;;;;14.45;5.68;;;1.00;63.80;;;;;;5053005;28;20096;-69
2020/12/06 00:20:25;;;;;;;12.02;5.43;;;1.00;64.40;;;;;;5052660;28;20438;-70
2020/12/06 00:22:50;;;;;;;15.15;6.70;;;1.00;63.70;;;;;;5053133;28;20119;-69
2020/12/06 00:25:16;;;;;;;10.63;5.72;;;1.00;63.60;;;;;;5053371;28;20032;-69
2020/12/06 00:27:42;;;;;;;8.65;4.88;;;1.00;63.80;;;;;;5052889;28;20096;-69
2020/12/06 00:30:11;;;;;;;10.65;5.47;;;1.00;63.80;;;;;;5052643;28;20068;-69
2020/12/06 00:32:40;;;;;;;10.88;5.72;;;1.00;63.90;;;;;;5055451;28;20180;-70
2020/12/06 00:35:07;;;;;;;11.18;5.80;;;1.00;63.80;;;;;;5056371;28;20094;-69
2020/12/06 00:37:33;;;;;;;11.23;5.30;;;1.00;63.80;;;;;;5056428;28;20135;-70
2020/12/06 00:39:59;;;;;;;10.35;5.95;;;1.00;63.90;;;;;;5056337;28;20126;-69
2020/12/06 00:42:24;;;;;;;14.10;5.85;;;1.00;63.90;;;;;;5056316;28;20021;-69
2020/12/06 00:44:50;;;;;;;13.88;6.25;;;1.00;64.10;;;;;;5056187;28;20031;-68
2020/12/06 00:47:15;;;;;;;11.20;5.43;;;1.00;64.10;;;;;;5055872;28;20029;-69
2020/12/06 00:49:41;;;;;;;10.25;5.20;;;1.00;64.10;;;;;;5055089;28;20021;-69
2020/12/06 00:52:07;;;;;;;9.13;5.10;;;1.00;64.00;;;;;;5056204;28;20023;-70
2020/12/06 00:54:33;;;;;;;13.68;5.65;;;1.00;64.00;;;;;;5056010;28;20029;-70
2020/12/06 00:56:59;;;;;;;11.23;5.28;;;0.90;64.00;;;;;;5056013;28;20395;-69
2020/12/06 00:59:25;;;;;;;10.77;5.10;;;0.90;64.00;;;;;;5056266;28;20029;-69
2020/12/06 01:01:52;;;;;;;9.20;5.00;;;0.90;63.90;;;;;;5055983;28;20092;-69
2020/12/06 01:04:18;;;;;;;8.98;4.80;;;0.90;63.80;;;;;;5055964;28;20036;-69
2020/12/06 01:06:43;;;;;;;13.68;6.13;;;0.80;63.80;;;;;;5055925;28;20029;-70
2020/12/06 01:09:09;;;;;;;12.35;6.68;;;0.80;63.90;;;;;;5055844;28;20384;-69
2020/12/06 01:11:34;;;;;;;11.40;5.20;;;0.80;63.90;;;;;;5055518;28;20051;-69
2020/12/06 01:14:00;;;;;;;12.60;5.93;;;0.70;63.90;;;;;;5055666;28;20036;-69
2020/12/06 01:16:26;;;;;;;12.48;5.10;;;0.70;63.90;;;;;;5055684;28;20035;-69
2020/12/06 01:18:51;;;;;;;12.20;5.97;;;0.70;63.90;;;;;;5056258;28;20112;-70
2020/12/06 01:21:17;;;;;;;10.55;5.72;;;0.70;63.90;;;;;;5055667;28;20510;-70
2020/12/06 01:23:43;;;;;;;11.88;5.45;;;0.70;63.90;;;;;;5055551;28;20017;-69
2020/12/06 01:26:12;;;;;;;11.27;5.60;;;0.70;63.90;;;;;;5054217;28;20017;-69
2020/12/06 01:28:38;;;;;;;9.65;5.07;;;0.70;64.00;;;;;;5055444;28;20021;-70
2020/12/06 01:31:06;;;;;;;9.02;5.40;;;0.70;64.00;;;;;;5055194;28;20017;-70
2020/12/06 01:33:31;;;;;;;13.13;6.28;;;0.70;63.90;;;;;;5054014;28;20021;-70
2020/12/06 01:35:57;;;;;;;11.75;5.68;;;0.70;63.90;;;;;;5054541;28;20310;-68
2020/12/06 01:38:23;;;;;;;12.27;5.78;;;0.60;63.80;;;;;;5054962;28;20412;-70
2020/12/06 01:40:48;;;;;;;11.63;5.47;;;0.60;63.80;;;;;;5055290;28;20407;-69
2020/12/06 01:43:14;;;;;;;11.93;5.22;;;0.60;64.00;;;;;;5055329;28;20025;-70
2020/12/06 01:45:40;;;;;;;12.52;5.13;;;0.60;63.90;;;;;;5054868;28;20309;-70
2020/12/06 01:48:07;;;;;;;11.07;5.38;;;0.60;63.90;;;;;;5055294;28;20025;-70
2020/12/06 01:50:37;;;;;;;10.13;5.47;;;0.60;63.70;;;;;;5054956;28;20021;-70
2020/12/06 01:53:04;;;;;;;10.20;5.28;;;0.60;63.70;;;;;;5053840;28;20135;-70
2020/12/06 01:55:31;;;;;;;11.45;4.85;;;0.60;63.70;;;;;;5055009;28;20455;-69
2020/12/06 01:58:08;;;;;;;9.43;5.22;;;0.60;63.70;;;;;;5055119;28;20078;-69
2020/12/06 02:00:36;;;;;;;11.43;5.13;;;0.60;63.60;;;;;;5055150;28;20024;-70
2020/12/06 02:03:03;;;;;;;10.00;4.95;;;0.50;63.50;;;;;;5055236;28;20114;-69
2020/12/06 02:05:30;;;;;;;13.50;5.82;;;0.60;63.60;;;;;;5054709;28;20356;-68
2020/12/06 02:07:59;;;;;;;11.07;5.43;;;0.50;63.50;;;;;;5054503;28;20561;-69
2020/12/06 02:10:29;;;;;;;12.90;4.97;;;0.50;63.40;;;;;;5054909;28;20021;-69
2020/12/06 02:12:56;;;;;;;11.38;5.22;;;0.50;63.40;;;;;;5054825;28;20032;-70
2020/12/06 02:15:22;;;;;;;11.00;5.53;;;0.50;63.30;;;;;;5054509;28;20109;-70
2020/12/06 02:17:48;;;;;;;11.23;5.32;;;0.50;63.30;;;;;;5054207;28;20485;-70
2020/12/06 02:20:14;;;;;;;12.60;6.15;;;0.50;63.30;;;;;;5054455;28;20055;-68
2020/12/06 02:22:40;;;;;;;9.35;5.00;;;0.40;63.20;;;;;;5053397;28;20456;-69
2020/12/06 02:25:05;;;;;;;12.85;5.47;;;0.40;63.20;;;;;;5053545;28;20032;-69
2020/12/06 02:27:31;;;;;;;9.25;4.95;;;0.40;63.70;;;;;;5054072;28;20052;-70
2020/12/06 02:29:57;;;;;;;9.45;5.45;;;0.40;63.10;;;;;;5054300;28;20337;-69
2020/12/06 02:32:23;;;;;;;12.32;5.25;;;0.40;63.10;;;;;;5053989;28;20055;-69
2020/12/06 02:34:49;;;;;;;7.53;4.68;;;0.40;63.20;;;;;;5054228;28;20363;-69
2020/12/06 02:37:15;;;;;;;9.98;4.47;;;0.30;63.20;;;;;;5054123;28;20033;-70
2020/12/06 02:39:41;;;;;;;12.50;5.18;;;0.40;63.30;;;;;;5053861;28;20420;-69
2020/12/06 02:42:07;;;;;;;9.02;5.00;;;0.40;63.30;;;;;;5053816;28;20013;-70
2020/12/06 02:44:33;;;;;;;9.25;4.55;;;0.40;63.30;;;;;;5052815;28;20373;-70
2020/12/06 02:46:59;;;;;;;18.10;5.70;;;0.40;63.40;;;;;;5054531;28;20017;-70
2020/12/06 02:49:26;;;;;;;11.43;4.75;;;0.40;63.40;;;;;;5054003;28;20013;-68
2020/12/06 02:51:51;;;;;;;11.50;5.18;;;0.40;63.40;;;;;;5052617;28;20095;-69
2020/12/06 02:54:17;;;;;;;10.43;5.70;;;0.40;63.40;;;;;;5053592;28;20025;-69
2020/12/06 02:56:43;;;;;;;12.85;5.18;;;0.40;63.40;;;;;;5054342;28;20025;-73
2020/12/06 02:59:09;;;;;;;10.07;5.00;;;0.40;63.30;;;;;;5053771;28;20052;-70
2020/12/06 03:01:34;;;;;;;12.13;5.65;;;0.30;63.20;;;;;;5054006;28;20021;-69
2020/12/06 03:04:00;;;;;;;13.65;4.93;;;0.30;63.70;;;;;;5053652;28;20028;-70
2020/12/06 03:06:26;;;;;;;10.38;4.68;;;0.30;63.20;;;;;;5053677;28;20536;-69
2020/12/06 03:08:52;;;;;;;12.63;4.72;;;0.30;63.20;;;;;;5053793;28;20045;-69
2020/12/06 03:11:18;;;;;;;11.88;5.78;;;0.30;63.20;;;;;;5053613;28;20017;-69
2020/12/06 03:13:44;;;;;;;9.15;5.05;;;0.30;63.20;;;;;;5053784;28;20057;-69
2020/12/06 03:16:09;;;;;;;8.05;4.60;;;0.30;63.10;;;;;;5053860;28;20032;-69
2020/12/06 03:18:35;;;;;;;13.85;5.30;;;0.30;63.10;;;;;;5053804;28;20025;-69
2020/12/06 03:21:01;;;;;;;8.63;4.65;;;0.30;63.10;;;;;;5053769;28;20028;-68
2020/12/06 03:23:27;;;;;;;9.57;4.95;;;0.30;63.10;;;;;;5053679;28;20031;-68
2020/12/06 03:25:53;;;;;;;8.00;4.93;;;0.30;63.10;;;;;;5053477;28;20017;-68
2020/12/06 03:28:19;;;;;;;11.00;4.75;;;0.30;63.10;;;;;;5053347;28;20453;-68
2020/12/06 03:30:44;;;;;;;9.40;4.85;;;0.30;63.00;;;;;;5051743;28;20029;-69
2020/12/06 03:33:10;;;;;;;10.30;4.25;;;0.30;62.90;;;;;;5053484;28;20048;-69
2020/12/06 03:35:36;;;;;;;10.38;4.97;;;0.30;62.80;;;;;;5053269;28;20040;-71
2020/12/06 03:38:01;;;;;;;8.80;4.70;;;0.30;62.70;;;;;;5053800;28;20036;-70
2020/12/06 03:40:27;;;;;;;8.88;5.20;;;0.20;62.60;;;;;;5052016;28;20021;-70
2020/12/06 03:42:53;;;;;;;9.63;4.80;;;0.30;62.70;;;;;;5052100;28;20369;-69
2020/12/06 03:45:20;;;;;;;11.93;5.57;;;0.20;62.60;;;;;;5053349;28;20056;-69
2020/12/06 03:47:46;;;;;;;8.57;4.65;;;0.20;62.50;;;;;;5053241;28;20052;-69
2020/12/06 03:50:12;;;;;;;10.45;4.90;;;0.20;62.50;;;;;;5053532;28;20032;-69
2020/12/06 03:52:37;;;;;;;9.32;4.65;;;0.20;62.50;;;;;;5053215;28;20017;-70
2020/12/06 03:55:04;;;;;;;7.85;4.60;;;0.20;62.40;;;;;;5053370;28;20071;-68
2020/12/06 03:57:29;;;;;;;12.80;4.70;;;0.20;62.20;;;;;;5053150;28;20025;-69
2020/12/06 03:59:55;;;;;;;10.88;5.03;;;0.10;62.00;;;;;;5053133;28;20510;-69
2020/12/06 04:02:20;;;;;;;10.45;5.07;;;0.10;62.00;;;;;;5053384;28;20025;-69
2020/12/06 04:04:46;;;;;;;9.80;4.90;;;0.10;62.00;;;;;;5053085;28;20025;-69
2020/12/06 04:07:12;;;;;;;11.85;4.93;;;0.10;62.00;;;;;;5055401;28;20100;-69
2020/12/06 04:09:38;;;;;;;17.13;4.80;;;0.00;61.90;;;;;;5057130;28;20048;-69
2020/12/06 04:12:03;;;;;;;10.55;4.57;;;0.00;61.80;;;;;;5056557;28;20099;-69
2020/12/06 04:14:29;;;;;;;10.75;4.72;;;0.00;61.70;;;;;;5057136;28;20021;-68
2020/12/06 04:16:55;;;;;;;12.48;4.45;;;0.00;61.70;;;;;;5056688;28;20117;-70
2020/12/06 04:19:20;;;;;;;9.55;4.72;;;0.00;61.70;;;;;;5056664;28;20111;-69
2020/12/06 04:21:46;;;;;;;8.73;4.40;;;-0.10;61.60;;;;;;5056698;28;20111;-70
2020/12/06 04:24:12;;;;;;;8.00;4.40;;;-0.10;62.10;;;;;;5038713;28;20132;-69
2020/12/06 04:26:40;;;;;;;9.60;4.68;;;-0.10;61.50;;;;;;5056602;28;20021;-70
2020/12/06 04:29:06;;;;;;;10.40;4.63;;;-0.10;61.50;;;;;;5056296;28;20080;-69
2020/12/06 04:31:31;;;;;;;12.70;4.68;;;-0.10;61.50;;;;;;5055277;28;20445;-69
2020/12/06 04:33:57;;;;;;;10.65;4.68;;;-0.20;61.30;;;;;;5056091;28;20446;-69
2020/12/06 04:36:23;;;;;;;12.60;4.60;;;-0.20;61.40;;;;;;5056457;28;20373;-68
2020/12/06 04:38:48;;;;;;;7.55;4.60;;;-0.20;61.30;;;;;;5056365;28;20017;-68
2020/12/06 04:41:14;;;;;;;13.73;4.40;;;-0.20;61.40;;;;;;5055105;28;20407;-69
2020/12/06 04:43:40;;;;;;;8.23;4.22;;;-0.20;61.40;;;;;;5056395;28;20020;-70
2020/12/06 04:46:07;;;;;;;13.30;4.55;;;-0.20;61.40;;;;;;5056478;28;20346;-69
2020/12/06 04:49:06;;;;;;;9.63;4.35;;;-0.20;61.20;;;;;;5056068;28;20021;-69
2020/12/06 04:51:43;;;;;;;9.00;4.30;;;-0.20;61.20;;;;;;5056098;28;20017;-70
2020/12/06 04:54:10;;;;;;;6.55;3.72;;;-0.20;61.10;;;;;;5056144;28;20115;-69
2020/12/06 04:56:39;;;;;;;6.72;4.40;;;-0.30;61.20;;;;;;5055957;28;20053;-69
2020/12/06 04:59:06;;;;;;;9.77;5.13;;;-0.30;61.20;;;;;;5056153;28;20057;-69
2020/12/06 05:01:37;;;;;;;12.52;4.10;;;-0.30;61.40;;;;;;5055677;28;20025;-70
2020/12/06 05:04:15;;;;;;;11.27;4.10;;;-0.30;61.20;;;;;;5055888;28;20056;-69
2020/12/06 05:06:43;;;;;;;9.57;4.05;;;-0.30;61.30;;;;;;5056146;28;20437;-69
2020/12/06 05:09:11;;;;;;;7.03;3.70;;;-0.30;61.40;;;;;;5054384;28;20069;-68
2020/12/06 05:11:38;;;;;;;11.00;4.57;;;-0.30;61.40;;;;;;5056025;28;20021;-70
2020/12/06 05:14:07;;;;;;;7.85;4.00;;;-0.30;61.40;;;;;;5055981;28;20334;-69
2020/12/06 05:16:40;;;;;;;11.82;4.25;;;-0.30;61.40;;;;;;5055678;28;20035;-69
2020/12/06 05:19:09;;;;;;;10.68;4.38;;;-0.30;61.40;;;;;;5054970;28;20040;-69
2020/12/06 05:21:37;;;;;;;7.80;4.03;;;-0.30;61.40;;;;;;5055817;28;20107;-69
2020/12/06 05:24:04;;;;;;;9.13;4.28;;;-0.30;61.30;;;;;;5055265;28;20031;-70
2020/12/06 05:26:30;;;;;;;7.63;4.00;;;-0.30;61.30;;;;;;5056222;28;20017;-69
2020/12/06 05:28:57;;;;;;;7.90;4.57;;;-0.30;61.30;;;;;;5055302;28;20475;-69
2020/12/06 05:31:23;;;;;;;8.65;4.25;;;-0.30;61.30;;;;;;5055115;28;20021;-69
2020/12/06 05:33:50;;;;;;;11.18;4.55;;;-0.30;61.30;;;;;;5055589;28;20445;-69
2020/12/06 05:36:16;;;;;;;7.53;3.83;;;-0.30;61.10;;;;;;5055042;28;20037;-70
2020/12/06 05:38:42;;;;;;;7.88;3.70;;;-0.30;61.10;;;;;;5055524;28;20017;-70
2020/12/06 05:41:08;;;;;;;17.50;7.32;;;-0.30;61.20;;;;;;5055398;28;20437;-70
2020/12/06 05:43:34;;;;;;;13.40;5.13;;;-0.30;61.30;;;;;;5055106;28;20467;-68
2020/12/06 05:46:08;;;;;;;11.45;5.28;;;-0.30;61.30;;;;;;5055561;28;20025;-70
2020/12/06 05:48:34;;;;;;;20.27;7.22;;;-0.20;61.40;;;;;;5055391;28;20123;-69
2020/12/06 05:51:01;;;;;;;11.18;4.38;;;-0.20;61.40;;;;;;5055341;28;20047;-71
2020/12/06 05:53:28;;;;;;;13.88;5.93;;;-0.20;61.40;;;;;;5055694;28;20021;-70
2020/12/06 05:56:19;;;;;;;10.43;5.15;;;-0.20;61.20;;;;;;5054937;28;20025;-69
2020/12/06 05:58:47;;;;;;;11.48;6.20;;;-0.20;60.90;;;;;;5055248;28;20108;-69
2020/12/06 06:01:14;;;;;;;9.23;4.55;;;-0.20;61.00;;;;;;5054349;28;20021;-70
2020/12/06 06:03:47;;;;;;;10.60;5.43;;;-0.10;61.00;;;;;;5054457;28;20029;-70
2020/12/06 06:06:20;;;;;;;6.68;3.92;;;-0.10;61.00;;;;;;5055515;28;20083;-69
2020/12/06 06:08:49;;;;;;;10.30;4.95;;;-0.10;61.10;;;;;;5054794;28;20045;-70
2020/12/06 06:11:22;;;;;;;14.02;5.32;;;-0.10;61.10;;;;;;5054651;28;20025;-69
2020/12/06 06:14:03;;;;;;;8.43;4.20;;;-0.10;61.10;;;;;;5054784;28;20111;-71
2020/12/06 06:16:31;;;;;;;8.57;4.40;;;-0.10;60.80;;;;;;5054939;28;20043;-71
2020/12/06 06:18:59;;;;;;;12.60;6.28;;;-0.10;60.90;;;;;;5054469;28;20017;-71
2020/12/06 06:21:44;;;;;;;20.58;7.95;;;0.00;61.10;;;;;;5054493;28;20116;-72
2020/12/06 06:24:18;;;;;;;11.48;5.45;;;0.00;61.10;;;;;;5054698;28;20138;-70
2020/12/06 06:26:48;;;;;;;16.80;6.10;;;0.10;61.20;;;;;;5054108;28;20058;-70
2020/12/06 06:29:15;;;;;;;12.88;4.72;;;0.20;61.10;;;;;;5053604;28;20353;-72
2020/12/06 06:31:43;;;;;;;12.07;4.72;;;0.30;61.10;;;;;;5054537;28;20048;-69
2020/12/06 06:34:09;;;;;;;7.13;4.13;;;0.30;60.70;;;;;;5054197;28;20025;-70
2020/12/06 06:36:36;;;;;;;9.55;4.80;;;0.30;60.80;;;;;;5054235;28;20029;-70
2020/12/06 06:39:04;;;;;;;7.72;4.75;;;0.30;60.90;;;;;;5053941;28;20020;-70
2020/12/06 06:41:31;;;;;;;10.88;4.45;;;0.40;61.00;;;;;;5053973;28;20057;-70
2020/12/06 06:44:02;;;;;;;11.60;4.85;;;0.50;61.00;;;;;;5054286;28;20025;-70
2020/12/06 06:46:33;;;;;;;7.18;4.18;;;0.60;60.70;;;;;;5054034;28;20021;-69
2020/12/06 06:49:07;;;;;;;32.47;9.80;;;0.70;60.90;;;;;;5053738;28;20028;-72
2020/12/06 06:51:33;;;;;;;21.65;7.70;;;0.80;60.90;;;;;;5052665;28;20032;-72
2020/12/06 06:54:07;;;;;;;13.55;5.68;;;1.00;60.90;;;;;;5053699;28;20033;-72
2020/12/06 06:56:54;;;;;;;18.35;5.65;;;1.10;60.30;;;;;;5053862;28;20029;-69
2020/12/06 06:59:58;;;;;;;10.70;5.07;;;1.10;60.20;;;;;;5053975;28;20337;-70
2020/12/06 07:02:39;;;;;;;12.35;4.38;;;1.30;60.20;;;;;;5053349;28;20036;-69
2020/12/06 07:05:14;;;;;;;10.13;4.93;;;1.40;60.10;;;;;;5053648;28;20412;-72
2020/12/06 07:07:41;;;;;;;11.82;5.20;;;1.50;60.00;;;;;;5053576;28;20017;-69
2020/12/06 07:10:08;;;;;;;8.77;4.28;;;1.60;59.90;;;;;;5054185;28;20040;-70
2020/12/06 07:12:37;;;;;;;12.77;4.80;;;1.70;59.40;;;;;;5053666;28;20053;-70
2020/12/06 07:15:06;;;;;;;9.25;4.28;;;1.80;59.20;;;;;;5052172;28;20032;-72
2020/12/06 07:17:32;;;;;;;9.07;4.55;;;1.90;59.00;;;;;;5053582;28;20017;-71
2020/12/06 07:19:58;;;;;;;7.25;4.25;;;2.00;59.00;;;;;;5053478;28;20048;-71
2020/12/06 07:22:24;;;;;;;10.93;4.63;;;2.10;58.80;;;;;;5053303;28;20024;-71
2020/12/06 07:24:50;;;;;;;21.27;7.53;;;2.20;58.80;;;;;;5053510;28;20036;-70
2020/12/06 07:27:16;;;;;;;13.52;5.38;;;2.30;58.60;;;;;;5053412;28;20427;-72
2020/12/06 07:29:42;;;;;;;9.40;5.05;;;2.50;58.40;;;;;;5053693;28;20102;-71
2020/12/06 07:32:09;;;;;;;14.15;5.57;;;2.70;58.10;;;;;;5053163;28;20028;-71
2020/12/06 07:34:34;;;;;;;11.32;4.47;;;2.90;58.00;;;;;;5052046;28;20420;-71
2020/12/06 07:37:01;;;;;;;18.77;4.72;;;3.30;57.90;;;;;;5053093;28;20099;-72
2020/12/06 07:39:27;;;;;;;9.60;5.15;;;3.80;57.70;;;;;;5052367;28;20116;-69
2020/12/06 07:41:53;;;;;;;8.52;4.68;;;4.40;57.70;;;;;;5056968;28;20422;-69
2020/12/06 07:44:18;;;;;;;7.38;4.47;;;5.00;57.60;;;;;;5057681;28;20457;-70
2020/12/06 07:46:44;;;;;;;10.13;4.50;;;5.70;58.10;;;;;;5057935;28;20025;-73
2020/12/06 07:49:10;;;;;;;33.20;9.82;;;6.40;57.80;;;;;;5055938;28;20449;-71
2020/12/06 07:51:36;;;;;;;14.32;5.63;;;7.10;56.80;;;;;;5057574;28;20475;-72
2020/12/06 07:54:03;;;;;;;9.05;4.82;;;7.80;55.60;;;;;;5057253;28;20025;-76
2020/12/06 07:56:30;;;;;;;14.57;5.43;;;8.50;54.60;;;;;;5057254;28;20021;-74
2020/12/06 07:59:11;;;;;;;33.53;10.60;;;9.20;53.20;;;;;;5057280;28;20108;-73
2020/12/06 08:01:38;;;;;;;43.92;14.05;;;9.90;50.90;;;;;;5057539;28;20326;-71
2020/12/06 08:04:05;;;;;;;45.05;13.45;;;10.50;50.80;;;;;;5057008;28;20104;-74
2020/12/06 08:06:33;;;;;;;31.75;9.63;;;11.00;49.40;;;;;;5056774;28;20476;-73
2020/12/06 08:09:02;;;;;;;19.30;7.35;;;11.60;48.40;;;;;;5055621;28;20135;-75
2020/12/06 08:11:35;;;;;;;11.32;5.93;;;12.10;47.10;;;;;;5056506;28;20021;-72
2020/12/06 08:14:02;;;;;;;15.75;6.75;;;12.60;45.30;;;;;;5055873;28;20036;-73
2020/12/06 08:16:28;;;;;;;33.60;11.27;;;13.20;45.00;;;;;;5056909;28;20025;-72
2020/12/06 08:19:01;;;;;;;21.90;9.35;;;13.70;44.00;;;;;;5056975;28;20441;-73
2020/12/06 08:21:43;;;;;;;18.55;7.47;;;14.10;42.40;;;;;;5056840;28;20060;-73
2020/12/06 08:24:22;;;;;;;23.08;9.00;;;14.50;40.90;;;;;;5057008;28;20025;-73
2020/12/06 08:26:49;;;;;;;10.13;5.53;;;15.00;40.10;;;;;;5055553;28;20021;-73
2020/12/06 08:29:16;;;;;;;9.80;5.43;;;15.30;40.30;;;;;;5056896;28;20021;-73
2020/12/06 08:31:43;;;;;;;12.35;5.20;;;15.60;39.30;;;;;;5056924;28;20364;-72
2020/12/06 08:34:10;;;;;;;8.38;4.80;;;15.90;38.40;;;;;;5056249;28;20029;-73
2020/12/06 08:36:36;;;;;;;9.90;5.18;;;16.10;37.60;;;;;;5056473;28;20029;-74
2020/12/06 08:39:18;;;;;;;21.55;9.90;;;16.30;36.80;;;;;;5056540;28;20036;-74
2020/12/06 08:41:49;;;;;;;12.27;6.78;;;16.50;36.40;;;;;;5056223;28;20028;-75
2020/12/06 08:44:15;;;;;;;9.00;5.47;;;16.80;36.00;;;;;;5056386;28;20029;-74
2020/12/06 08:46:52;;;;;;;7.40;5.20;;;17.20;35.40;;;;;;5056121;28;20075;-73
2020/12/06 08:49:19;;;;;;;18.33;6.30;;;17.40;34.00;;;;;;5071648;28;20023;-73
2020/12/06 08:51:53;;;;;;;11.27;5.38;;;17.50;34.30;;;;;;5055987;28;20463;-75
2020/12/06 08:54:35;;;;;;;11.85;5.50;;;17.80;33.30;;;;;;5055438;28;20021;-73
2020/12/06 08:57:09;;;;;;;6.88;4.95;;;18.10;32.60;;;;;;5055819;28;20049;-73
2020/12/06 08:59:39;;;;;;;9.35;5.32;;;18.20;32.30;;;;;;5056034;28;20025;-74
2020/12/06 09:02:06;;;;;;;8.50;5.43;;;18.30;32.00;;;;;;5037770;28;20025;-76
2020/12/06 09:04:36;;;;;;;9.02;5.47;;;18.40;32.20;;;;;;5055877;28;20107;-74
2020/12/06 09:07:06;;;;;;;8.65;5.28;;;18.60;31.30;;;;;;5054365;28;20021;-73
2020/12/06 09:09:32;;;;;;;9.25;5.30;;;18.90;31.80;;;;;;5056275;28;20411;-73
2020/12/06 09:11:58;;;;;;;10.40;4.80;;;19.10;31.10;;;;;;5054886;28;20348;-73
2020/12/06 09:14:25;;;;;;;8.70;4.70;;;19.30;30.80;;;;;;5055969;28;20028;-74
2020/12/06 09:16:51;;;;;;;8.70;5.22;;;19.50;30.10;;;;;;5056001;28;20029;-73
2020/12/06 09:19:18;;;;;;;8.60;4.93;;;19.60;29.80;;;;;;5054385;28;20024;-71
2020/12/06 09:21:43;;;;;;;6.43;4.88;;;19.60;29.50;;;;;;5055631;28;20468;-72
2020/12/06 09:24:09;;;;;;;7.97;5.18;;;19.70;29.40;;;;;;5055509;28;20025;-72
2020/12/06 09:26:35;;;;;;;7.13;4.90;;;19.80;29.10;;;;;;5055519;28;20032;-71
2020/12/06 09:29:01;;;;;;;9.90;5.82;;;19.80;28.80;;;;;;5055213;28;20036;-72
2020/12/06 09:31:27;;;;;;;8.35;5.43;;;19.80;28.90;;;;;;5055662;28;20449;-70
2020/12/06 09:33:57;;;;;;;8.55;6.35;;;20.00;28.80;;;;;;5054263;28;20024;-71
2020/12/06 09:36:23;;;;;;;12.15;6.00;;;20.30;28.40;;;;;;5054953;28;20021;-73
2020/12/06 09:38:49;;;;;;;12.00;5.18;;;20.50;28.40;;;;;;5054998;28;20020;-71
2020/12/06 09:41:15;;;;;;;8.05;5.18;;;20.70;28.20;;;;;;5053996;28;20068;-71
2020/12/06 09:43:45;;;;;;;5.93;5.10;;;20.90;27.90;;;;;;5055108;28;20100;-71
2020/12/06 09:46:13;;;;;;;8.05;5.40;;;21.30;27.50;;;;;;5055635;28;20040;-72
2020/12/06 09:48:40;;;;;;;12.05;5.95;;;21.50;27.40;;;;;;5055092;28;20104;-72
2020/12/06 09:51:07;;;;;;;22.25;7.28;;;21.40;27.20;;;;;;5054655;28;20025;-72
2020/12/06 09:53:33;;;;;;;8.70;5.40;;;21.40;27.00;;;;;;5055583;28;20017;-72
2020/12/06 09:55:58;;;;;;;15.25;7.47;;;21.50;26.90;;;;;;5054890;28;20416;-72
2020/12/06 09:58:24;;;;;;;10.10;5.65;;;21.30;26.60;;;;;;5055317;28;20028;-72
2020/12/06 10:00:50;;;;;;;10.00;6.15;;;21.40;26.70;;;;;;5055773;28;20028;-72
2020/12/06 10:03:16;;;;;;;17.42;6.20;;;21.60;26.60;;;;;;5054587;28;20096;-71
2020/12/06 10:05:42;;;;;;;11.90;5.60;;;21.80;26.50;;;;;;5053537;28;20029;-70
2020/12/06 10:08:08;;;;;;;13.35;6.38;;;22.10;26.40;;;;;;5054520;28;20100;-74
2020/12/06 10:10:34;;;;;;;11.00;5.93;;;22.10;26.20;;;;;;5053086;28;20520;-71
2020/12/06 10:13:00;;;;;;;9.65;5.95;;;22.20;26.10;;;;;;5054347;28;20101;-72
2020/12/06 10:15:26;;;;;;;43.85;14.65;;;22.50;26.10;;;;;;5054453;28;20021;-71
2020/12/06 10:17:52;;;;;;;48.55;15.57;;;22.70;25.80;;;;;;5054278;28;20036;-72
2020/12/06 10:20:20;;;;;;;14.18;6.30;;;22.80;26.20;;;;;;5054749;28;20025;-71
2020/12/06 10:22:46;;;;;;;13.48;5.72;;;22.90;25.70;;;;;;5053151;28;20021;-71
2020/12/06 10:25:12;;;;;;;7.93;4.85;;;23.20;25.50;;;;;;5054925;28;20048;-72
2020/12/06 10:27:38;;;;;;;14.07;8.25;;;23.30;25.20;;;;;;5054615;28;20088;-71
2020/12/06 10:30:05;;;;;;;9.38;5.93;;;23.40;25.10;;;;;;5054169;28;20021;-71
2020/12/06 10:32:33;;;;;;;11.20;6.15;;;23.50;25.00;;;;;;5054288;28;20017;-71
2020/12/06 10:34:59;;;;;;;18.73;6.65;;;23.40;24.60;;;;;;5053200;28;20025;-71
2020/12/06 10:37:25;;;;;;;19.80;6.45;;;23.50;24.70;;;;;;5054050;28;20381;-71
2020/12/06 10:39:51;;;;;;;37.88;14.63;;;23.50;24.60;;;;;;5053722;28;20021;-71
2020/12/06 10:42:17;;;;;;;25.20;9.23;;;23.40;24.50;;;;;;5052394;28;20027;-71
2020/12/06 10:44:43;;;;;;;11.52;6.63;;;23.40;24.50;;;;;;5054047;28;20033;-72
2020/12/06 10:47:08;;;;;;;29.08;9.95;;;23.50;24.50;;;;;;5054048;28;20025;-71
2020/12/06 10:49:40;;;;;;;20.15;7.78;;;23.50;24.40;;;;;;5054090;28;20021;-72
2020/12/06 10:52:08;;;;;;;7.80;5.25;;;23.50;24.40;;;;;;5054497;28;20013;-71
2020/12/06 10:54:33;;;;;;;10.70;6.30;;;23.60;24.30;;;;;;5054292;28;20031;-72
2020/12/06 10:56:59;;;;;;;12.15;7.47;;;23.60;24.20;;;;;;5054185;28;20033;-71
2020/12/06 10:59:30;;;;;;;8.05;5.65;;;23.60;24.20;;;;;;5053739;28;20025;-71
2020/12/06 11:01:59;;;;;;;10.63;5.78;;;23.70;24.00;;;;;;5053819;28;20100;-71
2020/12/06 11:04:25;;;;;;;9.00;5.90;;;23.70;23.90;;;;;;5053438;28;20028;-72
2020/12/06 11:06:51;;;;;;;7.50;5.47;;;23.90;24.10;;;;;;5053869;28;20066;-70
2020/12/06 11:09:17;;;;;;;5.47;4.75;;;23.90;23.90;;;;;;5054113;28;20041;-72
2020/12/06 11:11:48;;;;;;;7.68;4.75;;;23.90;23.90;;;;;;5053681;28;20020;-72
2020/12/06 11:14:14;;;;;;;8.10;5.10;;;23.90;23.80;;;;;;5052475;28;20364;-71
2020/12/06 11:16:40;;;;;;;6.20;4.60;;;24.00;23.70;;;;;;5052464;28;20509;-72
2020/12/06 11:19:05;;;;;;;6.35;4.97;;;24.00;23.50;;;;;;5052322;28;20116;-72
2020/12/06 11:21:31;;;;;;;9.93;4.85;;;24.00;23.50;;;;;;5053653;28;20028;-72
2020/12/06 11:23:58;;;;;;;5.88;4.55;;;24.00;23.40;;;;;;5052261;28;20032;-71
2020/12/06 11:26:24;;;;;;;7.82;5.03;;;24.00;23.40;;;;;;5052313;28;20025;-72
2020/12/06 11:28:49;;;;;;;9.30;4.82;;;24.00;23.40;;;;;;5052804;28;20151;-70
2020/12/06 11:31:15;;;;;;;7.82;4.97;;;23.90;23.40;;;;;;5053536;28;20039;-72
2020/12/06 11:33:41;;;;;;;6.78;5.05;;;24.00;23.60;;;;;;5052550;28;20047;-72
2020/12/06 11:36:08;;;;;;;8.25;4.88;;;24.00;23.30;;;;;;5053527;28;20048;-72
2020/12/06 11:38:36;;;;;;;11.88;5.40;;;24.10;23.30;;;;;;5053218;28;20458;-70
2020/12/06 11:41:04;;;;;;;13.57;5.53;;;24.00;23.10;;;;;;5053177;28;20021;-71
2020/12/06 11:43:31;;;;;;;6.43;4.47;;;23.80;23.10;;;;;;5053414;28;20021;-71
2020/12/06 11:45:57;;;;;;;6.07;4.45;;;23.80;23.20;;;;;;5052745;28;20524;-74
2020/12/06 11:48:23;;;;;;;6.25;5.15;;;23.80;23.30;;;;;;5053328;28;20108;-71
2020/12/06 11:50:48;;;;;;;11.60;5.88;;;23.70;23.30;;;;;;5053313;28;20342;-70
2020/12/06 11:53:14;;;;;;;8.90;5.53;;;23.50;23.50;;;;;;5053340;28;20032;-70
2020/12/06 11:55:40;;;;;;;13.35;6.25;;;23.30;23.60;;;;;;5052388;28;20032;-71
2020/12/06 11:58:06;;;;;;;10.25;5.70;;;23.10;23.70;;;;;;5052868;28;20026;-71
2020/12/06 12:00:31;;;;;;;17.45;5.82;;;23.00;23.70;;;;;;5052918;28;20028;-71
2020/12/06 12:02:57;;;;;;;8.95;5.25;;;23.00;23.70;;;;;;5052919;28;20025;-70
2020/12/06 12:05:23;;;;;;;18.52;5.50;;;23.00;23.60;;;;;;5053188;28;20487;-71
2020/12/06 12:07:49;;;;;;;22.30;5.10;;;22.90;23.60;;;;;;5053149;28;20380;-71
2020/12/06 12:10:15;;;;;;;10.73;5.68;;;22.90;23.60;;;;;;5052649;28;20140;-70
2020/12/06 12:12:44;;;;;;;7.43;5.20;;;22.90;23.60;;;;;;5051522;28;20047;-72
2020/12/06 12:15:10;;;;;;;8.48;4.93;;;22.80;23.50;;;;;;5052037;28;20033;-72
2020/12/06 12:17:36;;;;;;;9.55;5.32;;;22.70;23.70;;;;;;5053280;28;20021;-72
2020/12/06 12:20:03;;;;;;;9.40;5.20;;;22.60;23.80;;;;;;5053481;28;20131;-72
2020/12/06 12:22:29;;;;;;;7.40;5.32;;;22.40;23.80;;;;;;5053011;28;20429;-71
2020/12/06 12:24:55;;;;;;;13.68;5.50;;;22.40;24.00;;;;;;5053200;28;20122;-71
2020/12/06 12:27:20;;;;;;;8.95;5.50;;;22.30;24.00;;;;;;5053539;28;20111;-70
2020/12/06 12:29:46;;;;;;;12.13;5.28;;;22.20;24.00;;;;;;5056695;28;20021;-71
2020/12/06 12:32:12;;;;;;;12.05;5.70;;;22.00;23.90;;;;;;5056654;28;20067;-72
2020/12/06 12:34:38;;;;;;;9.25;5.82;;;21.90;24.10;;;;;;5056169;28;20025;-71
2020/12/06 12:37:03;;;;;;;6.93;4.72;;;21.70;24.20;;;;;;5056566;28;20025;-71
2020/12/06 12:39:29;;;;;;;9.50;5.22;;;21.40;24.20;;;;;;5056434;28;20346;-71
2020/12/06 12:41:56;;;;;;;20.33;6.18;;;21.10;24.30;;;;;;5056408;28;20421;-71
2020/12/06 12:44:23;;;;;;;6.70;5.05;;;20.80;24.40;;;;;;5056205;28;20039;-72
2020/12/06 12:46:53;;;;;;;17.02;5.43;;;20.50;24.50;;;;;;5055995;28;20033;-71